Aviation Digital Data Service (ADDS)

Output produced by TAFs form (2028 UTC 28 July 2014)
found at http://www.aviationweather.gov/adds/tafs/
 
KGFL 282005Z 2820/2918 00000KT P6SM SCT016 OVC027 
     FM282100 03006KT 4SM -TSRA BR SCT008 OVC015CB 
     FM290000 34010G16KT P6SM VCSH BKN015 OVC030 
     FM290500 31003KT 4SM BR SKC 
     FM290900 VRB03KT 2SM BR SCT003 
     FM291300 30005KT P6SM SCT040